sensor_id;sensor_type;location;lat;lon;timestamp;P1;durP1;ratioP1;P2;durP2;ratioP2
45694;SDS011;31408;45.468;9.124;2023-05-07T00:01:32;7.22;;;3.45;;
45694;SDS011;31408;45.468;9.124;2023-05-07T00:03:57;9.40;;;4.50;;
45694;SDS011;31408;45.468;9.124;2023-05-07T00:06:23;8.13;;;3.28;;
45694;SDS011;31408;45.468;9.124;2023-05-07T00:08:49;10.25;;;3.33;;
45694;SDS011;31408;45.468;9.124;2023-05-07T00:11:14;4.68;;;2.88;;
45694;SDS011;31408;45.468;9.124;2023-05-07T00:13:40;5.78;;;2.97;;
45694;SDS011;31408;45.468;9.124;2023-05-07T00:16:05;5.93;;;2.78;;
45694;SDS011;31408;45.468;9.124;2023-05-07T00:18:30;5.97;;;2.72;;
45694;SDS011;31408;45.468;9.124;2023-05-07T00:20:56;4.15;;;2.38;;
45694;SDS011;31408;45.468;9.124;2023-05-07T00:23:22;2.17;;;1.98;;
45694;SDS011;31408;45.468;9.124;2023-05-07T00:25:48;2.80;;;1.88;;
45694;SDS011;31408;45.468;9.124;2023-05-07T00:28:13;2.28;;;1.65;;
45694;SDS011;31408;45.468;9.124;2023-05-07T00:30:39;2.03;;;1.80;;
45694;SDS011;31408;45.468;9.124;2023-05-07T00:33:05;3.35;;;1.95;;
45694;SDS011;31408;45.468;9.124;2023-05-07T00:35:30;7.95;;;2.20;;
45694;SDS011;31408;45.468;9.124;2023-05-07T00:37:55;2.53;;;1.85;;
45694;SDS011;31408;45.468;9.124;2023-05-07T00:40:21;7.20;;;2.00;;
45694;SDS011;31408;45.468;9.124;2023-05-07T00:42:47;3.13;;;1.63;;
45694;SDS011;31408;45.468;9.124;2023-05-07T00:45:14;4.53;;;1.50;;
45694;SDS011;31408;45.468;9.124;2023-05-07T00:47:40;4.30;;;1.70;;
45694;SDS011;31408;45.468;9.124;2023-05-07T00:50:06;2.83;;;1.52;;
45694;SDS011;31408;45.468;9.124;2023-05-07T00:52:32;3.17;;;2.15;;
45694;SDS011;31408;45.468;9.124;2023-05-07T00:54:57;3.00;;;2.38;;
45694;SDS011;31408;45.468;9.124;2023-05-07T00:57:26;5.45;;;1.42;;
45694;SDS011;31408;45.468;9.124;2023-05-07T00:59:51;3.75;;;2.33;;
45694;SDS011;31408;45.468;9.124;2023-05-07T01:02:22;4.13;;;1.85;;
45694;SDS011;31408;45.468;9.124;2023-05-07T01:04:47;3.78;;;1.55;;
45694;SDS011;31408;45.468;9.124;2023-05-07T01:07:13;2.33;;;1.40;;
45694;SDS011;31408;45.468;9.124;2023-05-07T01:09:38;1.52;;;1.42;;
45694;SDS011;31408;45.468;9.124;2023-05-07T01:12:04;4.10;;;2.58;;
45694;SDS011;31408;45.468;9.124;2023-05-07T01:14:31;6.57;;;2.38;;
45694;SDS011;31408;45.468;9.124;2023-05-07T01:16:58;2.13;;;1.92;;
45694;SDS011;31408;45.468;9.124;2023-05-07T01:19:24;3.85;;;2.92;;
45694;SDS011;31408;45.468;9.124;2023-05-07T01:21:50;9.07;;;3.05;;
45694;SDS011;31408;45.468;9.124;2023-05-07T01:24:17;4.40;;;2.90;;
45694;SDS011;31408;45.468;9.124;2023-05-07T01:26:43;3.38;;;2.70;;
45694;SDS011;31408;45.468;9.124;2023-05-07T01:29:11;9.02;;;4.13;;
45694;SDS011;31408;45.468;9.124;2023-05-07T01:31:37;6.18;;;2.80;;
45694;SDS011;31408;45.468;9.124;2023-05-07T01:34:03;3.40;;;2.40;;
45694;SDS011;31408;45.468;9.124;2023-05-07T01:36:30;5.85;;;3.17;;
45694;SDS011;31408;45.468;9.124;2023-05-07T01:38:56;4.90;;;2.95;;
45694;SDS011;31408;45.468;9.124;2023-05-07T01:41:23;4.47;;;3.35;;
45694;SDS011;31408;45.468;9.124;2023-05-07T01:43:49;2.60;;;2.40;;
45694;SDS011;31408;45.468;9.124;2023-05-07T01:46:16;4.05;;;2.70;;
45694;SDS011;31408;45.468;9.124;2023-05-07T01:48:42;4.78;;;3.17;;
45694;SDS011;31408;45.468;9.124;2023-05-07T01:51:11;3.40;;;2.33;;
45694;SDS011;31408;45.468;9.124;2023-05-07T01:53:37;2.13;;;1.75;;
45694;SDS011;31408;45.468;9.124;2023-05-07T01:56:03;1.90;;;1.70;;
45694;SDS011;31408;45.468;9.124;2023-05-07T01:58:30;1.92;;;1.73;;
45694;SDS011;31408;45.468;9.124;2023-05-07T02:00:55;2.00;;;1.42;;
45694;SDS011;31408;45.468;9.124;2023-05-07T02:03:21;2.95;;;1.67;;
45694;SDS011;31408;45.468;9.124;2023-05-07T02:05:57;1.13;;;1.02;;
45694;SDS011;31408;45.468;9.124;2023-05-07T02:08:34;1.63;;;1.50;;
45694;SDS011;31408;45.468;9.124;2023-05-07T02:10:59;6.18;;;2.30;;
45694;SDS011;31408;45.468;9.124;2023-05-07T02:13:26;1.70;;;0.90;;
45694;SDS011;31408;45.468;9.124;2023-05-07T02:15:53;2.20;;;1.08;;
45694;SDS011;31408;45.468;9.124;2023-05-07T02:18:19;10.90;;;2.70;;
45694;SDS011;31408;45.468;9.124;2023-05-07T02:20:45;1.40;;;1.30;;
45694;SDS011;31408;45.468;9.124;2023-05-07T02:23:10;4.68;;;3.00;;
45694;SDS011;31408;45.468;9.124;2023-05-07T02:25:35;2.58;;;0.88;;
45694;SDS011;31408;45.468;9.124;2023-05-07T02:28:01;1.30;;;1.10;;
45694;SDS011;31408;45.468;9.124;2023-05-07T02:30:38;0.88;;;0.88;;
45694;SDS011;31408;45.468;9.124;2023-05-07T02:33:03;1.48;;;1.17;;
45694;SDS011;31408;45.468;9.124;2023-05-07T02:35:29;1.48;;;0.70;;
45694;SDS011;31408;45.468;9.124;2023-05-07T02:37:54;1.15;;;1.08;;
45694;SDS011;31408;45.468;9.124;2023-05-07T02:40:21;0.98;;;0.88;;
45694;SDS011;31408;45.468;9.124;2023-05-07T02:42:47;3.67;;;1.15;;
45694;SDS011;31408;45.468;9.124;2023-05-07T02:45:12;1.77;;;1.10;;
45694;SDS011;31408;45.468;9.124;2023-05-07T02:47:38;1.10;;;1.10;;
45694;SDS011;31408;45.468;9.124;2023-05-07T02:50:03;1.00;;;0.93;;
45694;SDS011;31408;45.468;9.124;2023-05-07T02:52:29;0.93;;;0.93;;
45694;SDS011;31408;45.468;9.124;2023-05-07T02:54:55;0.65;;;0.65;;
45694;SDS011;31408;45.468;9.124;2023-05-07T02:57:20;0.98;;;0.98;;
45694;SDS011;31408;45.468;9.124;2023-05-07T02:59:46;1.15;;;1.13;;
45694;SDS011;31408;45.468;9.124;2023-05-07T03:02:13;2.78;;;1.23;;
45694;SDS011;31408;45.468;9.124;2023-05-07T03:04:39;1.50;;;1.20;;
45694;SDS011;31408;45.468;9.124;2023-05-07T03:07:04;2.58;;;0.95;;
45694;SDS011;31408;45.468;9.124;2023-05-07T03:09:30;1.52;;;1.42;;
45694;SDS011;31408;45.468;9.124;2023-05-07T03:11:56;2.08;;;1.35;;
45694;SDS011;31408;45.468;9.124;2023-05-07T03:14:21;3.22;;;1.48;;
45694;SDS011;31408;45.468;9.124;2023-05-07T03:16:47;4.05;;;1.55;;
45694;SDS011;31408;45.468;9.124;2023-05-07T03:19:13;2.55;;;0.98;;
45694;SDS011;31408;45.468;9.124;2023-05-07T03:21:39;3.47;;;1.08;;
45694;SDS011;31408;45.468;9.124;2023-05-07T03:24:05;3.40;;;1.35;;
45694;SDS011;31408;45.468;9.124;2023-05-07T03:26:30;2.05;;;1.63;;
45694;SDS011;31408;45.468;9.124;2023-05-07T03:28:56;1.45;;;1.23;;
45694;SDS011;31408;45.468;9.124;2023-05-07T03:31:22;3.38;;;1.35;;
45694;SDS011;31408;45.468;9.124;2023-05-07T03:33:51;3.00;;;1.35;;
45694;SDS011;31408;45.468;9.124;2023-05-07T03:36:17;2.33;;;1.33;;
45694;SDS011;31408;45.468;9.124;2023-05-07T03:38:43;1.08;;;1.08;;
45694;SDS011;31408;45.468;9.124;2023-05-07T03:41:08;3.58;;;1.30;;
45694;SDS011;31408;45.468;9.124;2023-05-07T03:43:34;1.33;;;1.23;;
45694;SDS011;31408;45.468;9.124;2023-05-07T03:46:05;1.70;;;1.30;;
45694;SDS011;31408;45.468;9.124;2023-05-07T03:48:30;2.10;;;1.25;;
45694;SDS011;31408;45.468;9.124;2023-05-07T03:50:58;1.20;;;1.10;;
45694;SDS011;31408;45.468;9.124;2023-05-07T03:53:26;1.13;;;1.00;;
45694;SDS011;31408;45.468;9.124;2023-05-07T03:55:52;4.53;;;1.42;;
45694;SDS011;31408;45.468;9.124;2023-05-07T03:58:17;1.23;;;1.13;;
45694;SDS011;31408;45.468;9.124;2023-05-07T04:00:44;3.25;;;1.48;;
45694;SDS011;31408;45.468;9.124;2023-05-07T04:03:19;1.00;;;0.90;;
45694;SDS011;31408;45.468;9.124;2023-05-07T04:05:45;3.08;;;1.02;;
45694;SDS011;31408;45.468;9.124;2023-05-07T04:08:10;1.95;;;1.10;;
45694;SDS011;31408;45.468;9.124;2023-05-07T04:10:42;3.88;;;1.48;;
45694;SDS011;31408;45.468;9.124;2023-05-07T04:13:10;1.75;;;1.15;;
45694;SDS011;31408;45.468;9.124;2023-05-07T04:15:36;2.13;;;1.20;;
45694;SDS011;31408;45.468;9.124;2023-05-07T04:18:02;1.17;;;1.08;;
45694;SDS011;31408;45.468;9.124;2023-05-07T04:20:27;0.95;;;0.90;;
45694;SDS011;31408;45.468;9.124;2023-05-07T04:22:58;1.88;;;1.08;;
45694;SDS011;31408;45.468;9.124;2023-05-07T04:25:24;1.48;;;1.00;;
45694;SDS011;31408;45.468;9.124;2023-05-07T04:27:54;1.10;;;1.00;;
45694;SDS011;31408;45.468;9.124;2023-05-07T04:30:23;0.90;;;0.90;;
45694;SDS011;31408;45.468;9.124;2023-05-07T04:32:49;1.65;;;1.08;;
45694;SDS011;31408;45.468;9.124;2023-05-07T04:35:14;3.63;;;1.10;;
45694;SDS011;31408;45.468;9.124;2023-05-07T04:37:40;1.17;;;1.02;;
45694;SDS011;31408;45.468;9.124;2023-05-07T04:40:06;2.90;;;1.23;;
45694;SDS011;31408;45.468;9.124;2023-05-07T04:42:32;2.85;;;1.30;;
45694;SDS011;31408;45.468;9.124;2023-05-07T04:45:00;1.33;;;0.80;;
45694;SDS011;31408;45.468;9.124;2023-05-07T04:47:27;1.15;;;1.05;;
45694;SDS011;31408;45.468;9.124;2023-05-07T04:49:52;0.80;;;0.80;;
45694;SDS011;31408;45.468;9.124;2023-05-07T04:52:18;0.82;;;0.80;;
45694;SDS011;31408;45.468;9.124;2023-05-07T04:54:43;2.42;;;1.10;;
45694;SDS011;31408;45.468;9.124;2023-05-07T04:57:09;1.27;;;1.10;;
45694;SDS011;31408;45.468;9.124;2023-05-07T04:59:34;1.05;;;1.05;;
45694;SDS011;31408;45.468;9.124;2023-05-07T05:02:00;1.17;;;1.08;;
45694;SDS011;31408;45.468;9.124;2023-05-07T05:04:26;1.58;;;1.40;;
45694;SDS011;31408;45.468;9.124;2023-05-07T05:06:52;1.73;;;1.55;;
45694;SDS011;31408;45.468;9.124;2023-05-07T05:09:20;1.00;;;0.90;;
45694;SDS011;31408;45.468;9.124;2023-05-07T05:11:45;2.47;;;0.90;;
45694;SDS011;31408;45.468;9.124;2023-05-07T05:14:11;1.10;;;1.05;;
45694;SDS011;31408;45.468;9.124;2023-05-07T05:16:36;1.17;;;1.17;;
45694;SDS011;31408;45.468;9.124;2023-05-07T05:19:02;2.47;;;1.35;;
45694;SDS011;31408;45.468;9.124;2023-05-07T05:21:31;1.67;;;1.30;;
45694;SDS011;31408;45.468;9.124;2023-05-07T05:24:03;2.40;;;1.30;;
45694;SDS011;31408;45.468;9.124;2023-05-07T05:26:28;4.75;;;1.23;;
45694;SDS011;31408;45.468;9.124;2023-05-07T05:28:54;2.78;;;1.33;;
45694;SDS011;31408;45.468;9.124;2023-05-07T05:31:22;2.85;;;1.10;;
45694;SDS011;31408;45.468;9.124;2023-05-07T05:33:49;1.80;;;1.35;;
45694;SDS011;31408;45.468;9.124;2023-05-07T05:36:14;3.03;;;2.03;;
45694;SDS011;31408;45.468;9.124;2023-05-07T05:38:41;2.00;;;1.20;;
45694;SDS011;31408;45.468;9.124;2023-05-07T05:41:08;1.23;;;1.15;;
45694;SDS011;31408;45.468;9.124;2023-05-07T05:43:34;1.73;;;1.35;;
45694;SDS011;31408;45.468;9.124;2023-05-07T05:45:59;2.47;;;1.35;;
45694;SDS011;31408;45.468;9.124;2023-05-07T05:48:26;2.08;;;1.33;;
45694;SDS011;31408;45.468;9.124;2023-05-07T05:50:51;6.53;;;1.40;;
45694;SDS011;31408;45.468;9.124;2023-05-07T05:53:17;3.05;;;1.13;;
45694;SDS011;31408;45.468;9.124;2023-05-07T05:55:43;1.30;;;1.20;;
45694;SDS011;31408;45.468;9.124;2023-05-07T05:58:09;2.47;;;1.33;;
45694;SDS011;31408;45.468;9.124;2023-05-07T06:00:39;1.58;;;1.48;;
45694;SDS011;31408;45.468;9.124;2023-05-07T06:03:05;2.45;;;1.33;;
45694;SDS011;31408;45.468;9.124;2023-05-07T06:05:31;6.03;;;1.58;;
45694;SDS011;31408;45.468;9.124;2023-05-07T06:07:57;4.15;;;1.80;;
45694;SDS011;31408;45.468;9.124;2023-05-07T06:10:23;2.42;;;1.67;;
45694;SDS011;31408;45.468;9.124;2023-05-07T06:12:49;1.40;;;1.27;;
45694;SDS011;31408;45.468;9.124;2023-05-07T06:15:15;2.45;;;1.55;;
45694;SDS011;31408;45.468;9.124;2023-05-07T06:17:41;2.95;;;1.67;;
45694;SDS011;31408;45.468;9.124;2023-05-07T06:20:08;1.88;;;1.50;;
45694;SDS011;31408;45.468;9.124;2023-05-07T06:22:34;2.10;;;1.20;;
45694;SDS011;31408;45.468;9.124;2023-05-07T06:25:00;1.83;;;1.67;;
45694;SDS011;31408;45.468;9.124;2023-05-07T06:27:26;2.15;;;1.60;;
45694;SDS011;31408;45.468;9.124;2023-05-07T06:29:53;1.38;;;1.27;;
45694;SDS011;31408;45.468;9.124;2023-05-07T06:32:18;1.45;;;1.35;;
45694;SDS011;31408;45.468;9.124;2023-05-07T06:34:45;1.98;;;1.40;;
45694;SDS011;31408;45.468;9.124;2023-05-07T06:37:11;4.30;;;1.60;;
45694;SDS011;31408;45.468;9.124;2023-05-07T06:39:49;3.60;;;1.77;;
45694;SDS011;31408;45.468;9.124;2023-05-07T06:42:15;2.00;;;1.63;;
45694;SDS011;31408;45.468;9.124;2023-05-07T06:44:42;3.15;;;1.67;;
45694;SDS011;31408;45.468;9.124;2023-05-07T06:47:11;2.17;;;1.35;;
45694;SDS011;31408;45.468;9.124;2023-05-07T06:49:38;3.45;;;1.42;;
45694;SDS011;31408;45.468;9.124;2023-05-07T06:52:04;1.50;;;1.30;;
45694;SDS011;31408;45.468;9.124;2023-05-07T06:54:29;2.67;;;1.55;;
45694;SDS011;31408;45.468;9.124;2023-05-07T06:56:55;2.35;;;1.55;;
45694;SDS011;31408;45.468;9.124;2023-05-07T06:59:23;2.42;;;1.60;;
45694;SDS011;31408;45.468;9.124;2023-05-07T07:01:49;2.47;;;1.95;;
45694;SDS011;31408;45.468;9.124;2023-05-07T07:04:15;4.07;;;2.00;;
45694;SDS011;31408;45.468;9.124;2023-05-07T07:06:42;1.63;;;1.52;;
45694;SDS011;31408;45.468;9.124;2023-05-07T07:09:11;1.95;;;1.42;;
45694;SDS011;31408;45.468;9.124;2023-05-07T07:11:37;1.80;;;1.35;;
45694;SDS011;31408;45.468;9.124;2023-05-07T07:14:03;8.43;;;1.90;;
45694;SDS011;31408;45.468;9.124;2023-05-07T07:16:32;3.28;;;1.20;;
45694;SDS011;31408;45.468;9.124;2023-05-07T07:18:58;1.77;;;1.23;;
45694;SDS011;31408;45.468;9.124;2023-05-07T07:21:23;7.00;;;1.65;;
45694;SDS011;31408;45.468;9.124;2023-05-07T07:23:49;4.90;;;2.67;;
45694;SDS011;31408;45.468;9.124;2023-05-07T07:26:15;1.73;;;1.38;;
45694;SDS011;31408;45.468;9.124;2023-05-07T07:28:42;2.50;;;2.05;;
45694;SDS011;31408;45.468;9.124;2023-05-07T07:31:09;4.45;;;1.52;;
45694;SDS011;31408;45.468;9.124;2023-05-07T07:33:34;2.75;;;1.63;;
45694;SDS011;31408;45.468;9.124;2023-05-07T07:36:00;2.75;;;1.95;;
45694;SDS011;31408;45.468;9.124;2023-05-07T07:38:25;4.45;;;1.35;;
45694;SDS011;31408;45.468;9.124;2023-05-07T07:40:51;3.08;;;1.85;;
45694;SDS011;31408;45.468;9.124;2023-05-07T07:43:17;2.25;;;1.27;;
45694;SDS011;31408;45.468;9.124;2023-05-07T07:45:43;9.25;;;1.90;;
45694;SDS011;31408;45.468;9.124;2023-05-07T07:48:09;2.08;;;1.80;;
45694;SDS011;31408;45.468;9.124;2023-05-07T07:50:49;3.00;;;1.42;;
45694;SDS011;31408;45.468;9.124;2023-05-07T07:53:17;2.80;;;1.65;;
45694;SDS011;31408;45.468;9.124;2023-05-07T07:55:43;4.22;;;1.58;;
45694;SDS011;31408;45.468;9.124;2023-05-07T07:58:12;2.85;;;1.50;;
45694;SDS011;31408;45.468;9.124;2023-05-07T08:00:37;3.22;;;1.50;;
45694;SDS011;31408;45.468;9.124;2023-05-07T08:03:03;5.10;;;1.92;;
45694;SDS011;31408;45.468;9.124;2023-05-07T08:05:32;1.98;;;1.25;;
45694;SDS011;31408;45.468;9.124;2023-05-07T08:07:58;1.95;;;1.42;;
45694;SDS011;31408;45.468;9.124;2023-05-07T08:10:28;2.65;;;1.65;;
45694;SDS011;31408;45.468;9.124;2023-05-07T08:13:01;3.40;;;1.38;;
45694;SDS011;31408;45.468;9.124;2023-05-07T08:15:29;1.58;;;1.23;;
45694;SDS011;31408;45.468;9.124;2023-05-07T08:17:54;3.88;;;1.60;;
45694;SDS011;31408;45.468;9.124;2023-05-07T08:20:23;1.67;;;1.25;;
45694;SDS011;31408;45.468;9.124;2023-05-07T08:22:49;3.58;;;1.20;;
45694;SDS011;31408;45.468;9.124;2023-05-07T08:25:15;1.20;;;1.10;;
45694;SDS011;31408;45.468;9.124;2023-05-07T08:27:41;2.13;;;1.10;;
45694;SDS011;31408;45.468;9.124;2023-05-07T08:30:07;2.22;;;1.10;;
45694;SDS011;31408;45.468;9.124;2023-05-07T08:32:33;2.83;;;1.20;;
45694;SDS011;31408;45.468;9.124;2023-05-07T08:34:59;2.15;;;1.38;;
45694;SDS011;31408;45.468;9.124;2023-05-07T08:37:24;1.65;;;1.50;;
45694;SDS011;31408;45.468;9.124;2023-05-07T08:39:50;1.65;;;1.48;;
45694;SDS011;31408;45.468;9.124;2023-05-07T08:42:20;2.13;;;1.48;;
45694;SDS011;31408;45.468;9.124;2023-05-07T08:44:46;5.25;;;1.45;;
45694;SDS011;31408;45.468;9.124;2023-05-07T08:47:16;2.08;;;1.60;;
45694;SDS011;31408;45.468;9.124;2023-05-07T08:49:43;3.80;;;2.47;;
45694;SDS011;31408;45.468;9.124;2023-05-07T08:52:09;1.77;;;1.63;;
45694;SDS011;31408;45.468;9.124;2023-05-07T08:54:34;4.63;;;1.67;;
45694;SDS011;31408;45.468;9.124;2023-05-07T08:57:03;1.60;;;1.30;;
45694;SDS011;31408;45.468;9.124;2023-05-07T08:59:29;4.07;;;2.30;;
45694;SDS011;31408;45.468;9.124;2023-05-07T09:01:56;2.70;;;1.38;;
45694;SDS011;31408;45.468;9.124;2023-05-07T09:04:24;2.58;;;2.05;;
45694;SDS011;31408;45.468;9.124;2023-05-07T09:06:50;3.55;;;2.10;;
45694;SDS011;31408;45.468;9.124;2023-05-07T09:09:18;4.47;;;1.98;;
45694;SDS011;31408;45.468;9.124;2023-05-07T09:11:48;4.97;;;2.03;;
45694;SDS011;31408;45.468;9.124;2023-05-07T09:14:17;2.97;;;1.95;;
45694;SDS011;31408;45.468;9.124;2023-05-07T09:16:44;3.97;;;1.80;;
45694;SDS011;31408;45.468;9.124;2023-05-07T09:19:12;1.88;;;1.67;;
45694;SDS011;31408;45.468;9.124;2023-05-07T09:21:42;3.45;;;2.25;;
45694;SDS011;31408;45.468;9.124;2023-05-07T09:24:09;4.20;;;2.20;;
45694;SDS011;31408;45.468;9.124;2023-05-07T09:26:38;2.25;;;2.05;;
45694;SDS011;31408;45.468;9.124;2023-05-07T09:29:06;1.38;;;1.25;;
45694;SDS011;31408;45.468;9.124;2023-05-07T09:31:36;7.18;;;2.78;;
45694;SDS011;31408;45.468;9.124;2023-05-07T09:34:04;2.45;;;1.80;;
45694;SDS011;31408;45.468;9.124;2023-05-07T09:36:31;2.33;;;1.90;;
45694;SDS011;31408;45.468;9.124;2023-05-07T09:39:01;2.92;;;2.15;;
45694;SDS011;31408;45.468;9.124;2023-05-07T09:41:43;3.45;;;2.08;;
45694;SDS011;31408;45.468;9.124;2023-05-07T09:44:15;4.20;;;2.28;;
45694;SDS011;31408;45.468;9.124;2023-05-07T09:46:44;3.00;;;2.30;;
45694;SDS011;31408;45.468;9.124;2023-05-07T09:49:21;5.03;;;1.92;;
45694;SDS011;31408;45.468;9.124;2023-05-07T09:51:50;4.35;;;1.70;;
45694;SDS011;31408;45.468;9.124;2023-05-07T09:54:18;3.60;;;2.33;;
45694;SDS011;31408;45.468;9.124;2023-05-07T09:56:50;2.60;;;1.70;;
45694;SDS011;31408;45.468;9.124;2023-05-07T09:59:18;1.77;;;1.35;;
45694;SDS011;31408;45.468;9.124;2023-05-07T10:01:46;4.88;;;1.35;;
45694;SDS011;31408;45.468;9.124;2023-05-07T10:04:13;4.07;;;1.48;;
45694;SDS011;31408;45.468;9.124;2023-05-07T10:06:41;1.80;;;1.40;;
45694;SDS011;31408;45.468;9.124;2023-05-07T10:09:11;1.35;;;1.25;;
45694;SDS011;31408;45.468;9.124;2023-05-07T10:11:38;1.85;;;1.63;;
45694;SDS011;31408;45.468;9.124;2023-05-07T10:14:05;7.72;;;2.47;;
45694;SDS011;31408;45.468;9.124;2023-05-07T10:16:32;1.60;;;1.50;;
45694;SDS011;31408;45.468;9.124;2023-05-07T10:19:03;2.08;;;1.13;;
45694;SDS011;31408;45.468;9.124;2023-05-07T10:21:30;3.60;;;1.73;;
45694;SDS011;31408;45.468;9.124;2023-05-07T10:24:03;2.88;;;1.92;;
45694;SDS011;31408;45.468;9.124;2023-05-07T10:26:36;3.90;;;1.40;;
45694;SDS011;31408;45.468;9.124;2023-05-07T10:29:07;2.83;;;1.45;;
45694;SDS011;31408;45.468;9.124;2023-05-07T10:34:39;3.58;;;1.15;;
45694;SDS011;31408;45.468;9.124;2023-05-07T10:37:06;1.83;;;1.50;;
45694;SDS011;31408;45.468;9.124;2023-05-07T10:39:32;2.63;;;2.42;;
45694;SDS011;31408;45.468;9.124;2023-05-07T10:42:07;2.92;;;1.67;;
45694;SDS011;31408;45.468;9.124;2023-05-07T10:44:37;1.55;;;1.42;;
45694;SDS011;31408;45.468;9.124;2023-05-07T10:47:07;3.25;;;2.08;;
45694;SDS011;31408;45.468;9.124;2023-05-07T10:52:19;1.42;;;1.33;;
45694;SDS011;31408;45.468;9.124;2023-05-07T10:57:51;1.83;;;1.55;;
45694;SDS011;31408;45.468;9.124;2023-05-07T11:05:41;1.48;;;1.20;;
45694;SDS011;31408;45.468;9.124;2023-05-07T11:08:13;2.00;;;1.20;;
45694;SDS011;31408;45.468;9.124;2023-05-07T11:11:08;1.90;;;1.60;;
45694;SDS011;31408;45.468;9.124;2023-05-07T11:13:49;2.72;;;1.65;;
45694;SDS011;31408;45.468;9.124;2023-05-07T11:16:24;1.90;;;1.23;;
45694;SDS011;31408;45.468;9.124;2023-05-07T11:18:58;2.38;;;1.58;;
45694;SDS011;31408;45.468;9.124;2023-05-07T11:24:08;2.25;;;1.30;;
45694;SDS011;31408;45.468;9.124;2023-05-07T11:29:13;7.47;;;1.98;;
45694;SDS011;31408;45.468;9.124;2023-05-07T11:34:08;2.47;;;1.23;;
45694;SDS011;31408;45.468;9.124;2023-05-07T11:36:35;4.43;;;1.75;;
45694;SDS011;31408;45.468;9.124;2023-05-07T11:39:03;3.28;;;1.65;;
45694;SDS011;31408;45.468;9.124;2023-05-07T11:41:35;2.03;;;1.80;;
45694;SDS011;31408;45.468;9.124;2023-05-07T11:44:01;2.08;;;1.60;;
45694;SDS011;31408;45.468;9.124;2023-05-07T11:46:28;3.55;;;1.38;;
45694;SDS011;31408;45.468;9.124;2023-05-07T11:48:53;7.30;;;1.80;;
45694;SDS011;31408;45.468;9.124;2023-05-07T11:51:23;2.05;;;1.70;;
45694;SDS011;31408;45.468;9.124;2023-05-07T11:53:51;2.88;;;1.83;;
45694;SDS011;31408;45.468;9.124;2023-05-07T11:56:17;1.70;;;1.40;;
45694;SDS011;31408;45.468;9.124;2023-05-07T11:58:43;3.55;;;1.45;;
45694;SDS011;31408;45.468;9.124;2023-05-07T12:01:10;3.95;;;1.88;;
45694;SDS011;31408;45.468;9.124;2023-05-07T12:03:37;1.65;;;1.55;;
45694;SDS011;31408;45.468;9.124;2023-05-07T12:06:05;3.45;;;1.35;;
45694;SDS011;31408;45.468;9.124;2023-05-07T12:08:31;1.92;;;1.42;;
45694;SDS011;31408;45.468;9.124;2023-05-07T12:10:56;1.77;;;1.67;;
45694;SDS011;31408;45.468;9.124;2023-05-07T12:13:22;2.60;;;1.75;;
45694;SDS011;31408;45.468;9.124;2023-05-07T12:15:50;1.50;;;1.40;;
45694;SDS011;31408;45.468;9.124;2023-05-07T12:18:19;1.58;;;1.48;;
45694;SDS011;31408;45.468;9.124;2023-05-07T12:20:45;1.65;;;1.40;;
45694;SDS011;31408;45.468;9.124;2023-05-07T12:23:10;1.75;;;1.40;;
45694;SDS011;31408;45.468;9.124;2023-05-07T12:25:37;1.77;;;1.05;;
45694;SDS011;31408;45.468;9.124;2023-05-07T12:28:03;1.40;;;1.30;;
45694;SDS011;31408;45.468;9.124;2023-05-07T12:30:36;1.67;;;1.58;;
45694;SDS011;31408;45.468;9.124;2023-05-07T12:33:02;1.20;;;1.10;;
45694;SDS011;31408;45.468;9.124;2023-05-07T12:35:28;4.13;;;1.60;;
45694;SDS011;31408;45.468;9.124;2023-05-07T12:37:55;3.42;;;1.92;;
45694;SDS011;31408;45.468;9.124;2023-05-07T12:40:21;2.63;;;1.35;;
45694;SDS011;31408;45.468;9.124;2023-05-07T12:42:47;2.50;;;2.08;;
45694;SDS011;31408;45.468;9.124;2023-05-07T12:45:18;2.75;;;1.80;;
45694;SDS011;31408;45.468;9.124;2023-05-07T12:47:45;2.05;;;1.38;;
45694;SDS011;31408;45.468;9.124;2023-05-07T12:50:12;1.90;;;1.20;;
45694;SDS011;31408;45.468;9.124;2023-05-07T12:52:39;1.80;;;1.65;;
45694;SDS011;31408;45.468;9.124;2023-05-07T12:55:05;2.42;;;1.48;;
45694;SDS011;31408;45.468;9.124;2023-05-07T12:57:41;2.88;;;1.90;;
45694;SDS011;31408;45.468;9.124;2023-05-07T13:00:08;2.75;;;1.60;;
45694;SDS011;31408;45.468;9.124;2023-05-07T13:02:37;2.40;;;1.77;;
45694;SDS011;31408;45.468;9.124;2023-05-07T13:05:04;4.50;;;1.63;;
45694;SDS011;31408;45.468;9.124;2023-05-07T13:07:30;3.83;;;1.42;;
45694;SDS011;31408;45.468;9.124;2023-05-07T13:09:55;2.05;;;1.70;;
45694;SDS011;31408;45.468;9.124;2023-05-07T13:12:21;2.42;;;1.70;;
45694;SDS011;31408;45.468;9.124;2023-05-07T13:14:46;1.60;;;1.50;;
45694;SDS011;31408;45.468;9.124;2023-05-07T13:17:12;1.42;;;1.30;;
45694;SDS011;31408;45.468;9.124;2023-05-07T13:19:37;2.45;;;1.40;;
45694;SDS011;31408;45.468;9.124;2023-05-07T13:22:03;2.42;;;1.33;;
45694;SDS011;31408;45.468;9.124;2023-05-07T13:24:29;4.35;;;2.40;;
45694;SDS011;31408;45.468;9.124;2023-05-07T13:26:54;0.98;;;0.98;;
45694;SDS011;31408;45.468;9.124;2023-05-07T13:29:20;1.67;;;1.10;;
45694;SDS011;31408;45.468;9.124;2023-05-07T13:31:50;2.35;;;1.23;;
45694;SDS011;31408;45.468;9.124;2023-05-07T13:34:15;3.45;;;1.02;;
45694;SDS011;31408;45.468;9.124;2023-05-07T13:36:41;1.70;;;1.48;;
45694;SDS011;31408;45.468;9.124;2023-05-07T13:39:07;2.83;;;1.10;;
45694;SDS011;31408;45.468;9.124;2023-05-07T13:41:32;3.22;;;1.55;;
45694;SDS011;31408;45.468;9.124;2023-05-07T13:43:58;1.05;;;1.00;;
45694;SDS011;31408;45.468;9.124;2023-05-07T13:46:23;2.22;;;1.20;;
45694;SDS011;31408;45.468;9.124;2023-05-07T13:48:51;1.17;;;1.08;;
45694;SDS011;31408;45.468;9.124;2023-05-07T13:51:17;1.40;;;1.10;;
45694;SDS011;31408;45.468;9.124;2023-05-07T13:53:43;1.90;;;1.05;;
45694;SDS011;31408;45.468;9.124;2023-05-07T13:56:08;1.00;;;0.90;;
45694;SDS011;31408;45.468;9.124;2023-05-07T13:58:34;3.83;;;1.70;;
45694;SDS011;31408;45.468;9.124;2023-05-07T14:01:01;1.08;;;1.02;;
45694;SDS011;31408;45.468;9.124;2023-05-07T14:03:27;1.63;;;1.02;;
45694;SDS011;31408;45.468;9.124;2023-05-07T14:05:52;1.77;;;1.27;;
45694;SDS011;31408;45.468;9.124;2023-05-07T14:08:18;3.78;;;1.20;;
45694;SDS011;31408;45.468;9.124;2023-05-07T14:10:45;3.10;;;1.20;;
45694;SDS011;31408;45.468;9.124;2023-05-07T14:13:11;1.38;;;1.27;;
45694;SDS011;31408;45.468;9.124;2023-05-07T14:15:37;1.80;;;1.23;;
45694;SDS011;31408;45.468;9.124;2023-05-07T14:18:02;1.42;;;1.33;;
45694;SDS011;31408;45.468;9.124;2023-05-07T14:20:28;2.17;;;1.15;;
45694;SDS011;31408;45.468;9.124;2023-05-07T14:22:55;1.02;;;0.98;;
45694;SDS011;31408;45.468;9.124;2023-05-07T14:25:20;4.05;;;1.13;;
45694;SDS011;31408;45.468;9.124;2023-05-07T14:27:49;3.15;;;1.05;;
45694;SDS011;31408;45.468;9.124;2023-05-07T14:30:15;1.27;;;1.13;;
45694;SDS011;31408;45.468;9.124;2023-05-07T14:32:41;1.92;;;1.02;;
45694;SDS011;31408;45.468;9.124;2023-05-07T14:35:07;0.88;;;0.80;;
45694;SDS011;31408;45.468;9.124;2023-05-07T14:37:33;1.33;;;1.00;;
45694;SDS011;31408;45.468;9.124;2023-05-07T14:39:58;2.05;;;1.40;;
45694;SDS011;31408;45.468;9.124;2023-05-07T14:42:24;1.63;;;1.20;;
45694;SDS011;31408;45.468;9.124;2023-05-07T14:44:49;2.08;;;1.45;;
45694;SDS011;31408;45.468;9.124;2023-05-07T14:47:15;1.50;;;1.40;;
45694;SDS011;31408;45.468;9.124;2023-05-07T14:49:41;2.25;;;1.23;;
45694;SDS011;31408;45.468;9.124;2023-05-07T14:52:07;1.90;;;1.30;;
45694;SDS011;31408;45.468;9.124;2023-05-07T14:54:34;1.50;;;1.30;;
45694;SDS011;31408;45.468;9.124;2023-05-07T14:57:01;4.25;;;1.08;;
45694;SDS011;31408;45.468;9.124;2023-05-07T14:59:26;1.63;;;1.45;;
45694;SDS011;31408;45.468;9.124;2023-05-07T15:01:52;1.15;;;1.08;;
45694;SDS011;31408;45.468;9.124;2023-05-07T15:04:17;2.38;;;1.10;;
45694;SDS011;31408;45.468;9.124;2023-05-07T15:06:43;2.67;;;1.13;;
45694;SDS011;31408;45.468;9.124;2023-05-07T15:09:08;1.17;;;1.10;;